Marmet, WV

12:25 AM EDT en Octubre 20, 2014 (GMT -0400)
Raleigh County Memorial | Change Station
CLOSE
Current Station
Aeropuerto
Location: Beckley,
Altura: 2513 ft
Estaciones meteorológicas cercanas
Aviso en curso: Frost Advisory

Alt 2513 ft 37.79 °N, 81.12 °W | Updated 1 hour ago

Niebla
Niebla
40 ° F
Sensación térmica 36 ° F
N
6
Viento Variable Viento desde SSE

Hoy
Alta -- | Baja -- ° F
--% Posibilidad de precipitaciones
Ayer
Alta -- | Baja -- ° F
Precip. -- pul
7:39 AM 6:41 PM
Creciente menguante, 13% visible
Presión 30.16 pul
Visibilidad 10.0 Millas
Nubes Despejado
Vientos helados 36 ° F
Punto de rocío 35 ° F
Humedad 83%
Precipitaciones 0.03 pul
Espesor de la nieve No disponible.
UV 0 de una escala de 12
Polen .90 de una escala de 12
Calidad del aire No disponible.
Flu Activity Sporadic
METAR KBKW 200251Z AUTO 15005KT 10SM CLR 04/02 A3012 RMK AO2 SLP212 T00440017 58006 TSNO

More Conditions Fewer Conditions

Presión 30.16 pul
Visibilidad 10.0 Millas
Nubes Despejado
Vientos helados 36 ° F
Punto de rocío 35 ° F
Humedad 83%
Precipitaciones 0.03 pul
Espesor de la nieve No disponible.
UV 0 de una escala de 12
Polen .90 de una escala de 12
Calidad del aire No disponible.
Flu Activity Sporadic
METAR KBKW 200251Z AUTO 15005KT 10SM CLR 04/02 A3012 RMK AO2 SLP212 T00440017 58006 TSNO

More Conditions Fewer Conditions

10-Day Weather Forecast

Almanac

Astronomía

Oct. 20, 2014 Salida Puesta
Hora real 7:39 AM EDT 6:41 PM EDT
Crepúsculo civil 7:13 AM EDT 7:08 PM EDT
Crepúsculo náutico 6:42 AM EDT 7:38 PM EDT
Crepúsculo astronómico 6:11 AM EDT 8:09 PM EDT
Luna 4:29 AM EDT 5:01 PM EDT
Horas de luz 11h 55m
Horas de luz
11h 01m
Creciente menguante, 13% of the Moon is Illuminated
Hoy
Creciente menguante
Oct 23
Nueva
Oct 30
Cuarto creciente
Nov 6
Luna llena
Nov 14
Cuarto menguante

Extremos de hoy

Máximos del estado Bajos del estado

Community

WunderPhotos

Upload Photos

1,763,294 ¡fotos cargadas!

Nearby

Grosos de nieve

Estación Profundido Altura
No tenemos constancia de nieve nueva.

Actividad de terremotos

Ciudad Distance Mag. Tiempo y dato
No hay informes recientes de la actividad sísmica.
Magnitud mínima muestra es 2,5.

Temperaturas de aguas costeras

Lugar Temperatura
Sin partes meteorológicos de las estaciones

Estaciones meteorológicas cercanas